Time;durP1;ratioP1;P1;durP2;ratioP2;P2;SDS_P1;SDS_P2;PMS_P1;PMS_P2;Temp;Humidity;BMP_temperature;BMP_pressure;BME280_temperature;BME280_humidity;BME280_pressure;Samples;Min_cycle;Max_cycle;Signal;HPM_P1;HPM_P2
2022/04/15 00:01:37;;;;;;;3.80;2.00;;;10.80;99.90;;;;;;5005418;28;20221;-67
2022/04/15 00:04:03;;;;;;;4.97;2.40;;;10.70;99.90;;;;;;5017860;28;20566;-66
2022/04/15 00:06:30;;;;;;;3.63;1.87;;;10.70;99.90;;;;;;5005940;28;20956;-67
2022/04/15 00:08:56;;;;;;;3.83;2.30;;;10.70;99.90;;;;;;5002882;28;20434;-67
2022/04/15 00:11:22;;;;;;;8.47;2.60;;;10.70;99.90;;;;;;5005451;28;20422;-66
2022/04/15 00:13:48;;;;;;;6.03;2.33;;;10.60;99.90;;;;;;5005213;28;21070;-67
2022/04/15 00:16:14;;;;;;;6.30;2.00;;;10.60;99.90;;;;;;5005237;28;20538;-66
2022/04/15 00:18:41;;;;;;;4.47;2.50;;;10.50;99.90;;;;;;5004591;28;20923;-67
2022/04/15 00:21:07;;;;;;;4.33;2.00;;;10.50;99.90;;;;;;4987268;28;20441;-67
2022/04/15 00:23:33;;;;;;;4.00;1.97;;;10.40;99.90;;;;;;5005056;28;21023;-67
2022/04/15 00:25:59;;;;;;;6.00;2.10;;;10.40;99.90;;;;;;5005015;28;20310;-66
2022/04/15 00:28:25;;;;;;;3.43;2.03;;;10.40;99.90;;;;;;5004637;28;20534;-66
2022/04/15 00:30:51;;;;;;;4.30;1.80;;;10.40;99.90;;;;;;5005000;28;20532;-66
2022/04/15 00:33:16;;;;;;;3.87;1.97;;;10.40;99.90;;;;;;5005149;28;20187;-66
2022/04/15 00:35:42;;;;;;;4.50;2.60;;;10.40;99.90;;;;;;5010690;28;20698;-66
2022/04/15 00:38:08;;;;;;;7.23;3.43;;;10.40;99.90;;;;;;5004557;28;20195;-67
2022/04/15 00:40:34;;;;;;;7.90;3.00;;;10.40;99.90;;;;;;5004477;28;20513;-67
2022/04/15 00:43:00;;;;;;;4.57;2.67;;;10.40;99.90;;;;;;5005094;28;20187;-67
2022/04/15 00:45:26;;;;;;;7.97;3.30;;;10.40;99.90;;;;;;5017325;28;20368;-66
2022/04/15 00:47:58;;;;;;;7.43;3.17;;;10.40;99.90;;;;;;5012384;28;20838;-65
2022/04/15 00:50:35;;;;;;;4.30;2.50;;;10.40;99.90;;;;;;5007695;28;20925;-67
2022/04/15 00:53:06;;;;;;;4.73;3.10;;;10.30;99.90;;;;;;5009946;28;20424;-67
2022/04/15 00:55:33;;;;;;;6.10;2.80;;;10.30;99.90;;;;;;4999577;28;20446;-66
2022/04/15 00:58:00;;;;;;;6.00;3.33;;;10.20;99.90;;;;;;5008893;28;20464;-67
2022/04/15 01:00:28;;;;;;;5.10;2.83;;;10.10;99.90;;;;;;5007310;28;20932;-67
2022/04/15 01:02:56;;;;;;;8.90;3.60;;;10.00;99.90;;;;;;5008109;28;20425;-67
2022/04/15 01:05:22;;;;;;;7.83;2.80;;;10.00;99.90;;;;;;5008334;28;20526;-66
2022/04/15 01:07:49;;;;;;;6.20;2.67;;;10.00;99.90;;;;;;5008150;28;20876;-66
2022/04/15 01:10:17;;;;;;;4.73;2.90;;;9.90;99.90;;;;;;5006470;28;20426;-66
2022/04/15 01:12:54;;;;;;;12.60;3.00;;;9.90;99.90;;;;;;5008435;28;20441;-64
2022/04/15 01:15:29;;;;;;;4.10;1.87;;;9.80;99.90;;;;;;5008189;28;20449;-64
2022/04/15 01:17:55;;;;;;;6.40;2.90;;;9.80;99.90;;;;;;5008330;28;21193;-65
2022/04/15 01:20:21;;;;;;;5.20;2.23;;;9.80;99.90;;;;;;5014065;28;20422;-65
2022/04/15 01:23:08;;;;;;;6.83;2.80;;;9.80;99.90;;;;;;5007849;28;20301;-65
2022/04/15 01:25:35;;;;;;;4.60;2.60;;;9.70;99.90;;;;;;5008073;28;20850;-64
2022/04/15 01:28:00;;;;;;;6.50;3.37;;;9.70;99.90;;;;;;5008013;28;20434;-65
2022/04/15 01:30:26;;;;;;;4.23;2.40;;;9.70;99.90;;;;;;5007254;28;20454;-65
2022/04/15 01:32:52;;;;;;;5.53;2.70;;;9.60;99.90;;;;;;5008176;28;20183;-65
2022/04/15 01:35:19;;;;;;;6.27;2.67;;;9.60;99.90;;;;;;5008695;28;20211;-65
2022/04/15 01:37:47;;;;;;;4.60;2.80;;;9.60;99.90;;;;;;5006957;28;20468;-65
2022/04/15 01:40:14;;;;;;;9.20;3.60;;;9.70;99.90;;;;;;5007166;28;20438;-65
2022/04/15 01:42:42;;;;;;;10.90;3.10;;;9.60;99.90;;;;;;5011660;28;20430;-65
2022/04/15 01:45:09;;;;;;;6.70;3.13;;;9.60;99.90;;;;;;5013089;28;20473;-64
2022/04/15 01:47:36;;;;;;;5.90;3.00;;;9.60;99.90;;;;;;5013375;28;20687;-65
2022/04/15 01:50:03;;;;;;;6.37;2.90;;;9.70;99.90;;;;;;5006684;28;20469;-63
2022/04/15 01:52:29;;;;;;;5.17;2.80;;;9.70;99.90;;;;;;5006797;28;20438;-64
2022/04/15 01:54:54;;;;;;;5.23;2.93;;;9.70;99.90;;;;;;5007618;28;20458;-64
2022/04/15 01:57:20;;;;;;;10.90;3.50;;;9.80;99.90;;;;;;5007044;28;20191;-65
2022/04/15 01:59:46;;;;;;;7.90;3.20;;;9.80;99.90;;;;;;5007036;28;20273;-65
2022/04/15 02:02:12;;;;;;;6.63;2.53;;;9.90;99.90;;;;;;5007239;28;20187;-65
2022/04/15 02:04:38;;;;;;;6.70;2.83;;;9.90;99.90;;;;;;5007550;28;20225;-65
2022/04/15 02:07:04;;;;;;;5.70;3.30;;;10.00;99.90;;;;;;5007256;28;20195;-65
2022/04/15 02:09:30;;;;;;;5.37;2.67;;;10.00;99.90;;;;;;5004494;28;20719;-65
2022/04/15 02:11:56;;;;;;;4.67;2.60;;;10.00;99.90;;;;;;5007277;28;20949;-65
2022/04/15 02:14:22;;;;;;;6.80;3.23;;;10.00;99.90;;;;;;5007321;28;20429;-65
2022/04/15 02:16:50;;;;;;;3.80;2.30;;;10.00;99.90;;;;;;5006818;28;20190;-64
2022/04/15 02:19:15;;;;;;;14.17;3.03;;;10.00;99.90;;;;;;5006923;28;20206;-63
2022/04/15 02:21:41;;;;;;;5.50;2.87;;;10.00;99.90;;;;;;5007225;28;20422;-65
2022/04/15 02:24:07;;;;;;;10.20;3.70;;;10.00;99.90;;;;;;5000550;28;20203;-64
2022/04/15 02:26:33;;;;;;;7.33;3.27;;;10.00;99.90;;;;;;5007123;28;20690;-64
2022/04/15 02:29:00;;;;;;;6.60;3.03;;;9.90;99.90;;;;;;5006160;28;20186;-65
2022/04/15 02:31:25;;;;;;;5.80;3.10;;;9.90;99.90;;;;;;5006516;28;20434;-64
2022/04/15 02:33:51;;;;;;;5.10;3.23;;;9.90;99.90;;;;;;5011634;28;20440;-64
2022/04/15 02:36:17;;;;;;;5.23;2.67;;;9.90;99.90;;;;;;5008287;28;20725;-65
2022/04/15 02:38:43;;;;;;;5.03;2.67;;;9.80;99.90;;;;;;5005737;28;21035;-65
2022/04/15 02:41:09;;;;;;;7.23;2.83;;;9.80;99.90;;;;;;5006659;28;20195;-64
2022/04/15 02:43:38;;;;;;;8.80;3.73;;;9.80;99.90;;;;;;5007059;28;20562;-65
2022/04/15 02:46:06;;;;;;;16.87;3.90;;;9.80;99.90;;;;;;5010108;28;21307;-65
2022/04/15 02:48:32;;;;;;;7.57;3.70;;;9.80;99.90;;;;;;5008216;28;20438;-64
2022/04/15 02:50:58;;;;;;;7.27;3.17;;;9.90;99.90;;;;;;5007692;28;20430;-64
2022/04/15 02:53:24;;;;;;;4.53;2.97;;;9.90;99.90;;;;;;5008474;28;21082;-63
2022/04/15 02:55:50;;;;;;;8.30;3.57;;;9.90;99.90;;;;;;5009915;28;20569;-64
2022/04/15 02:58:16;;;;;;;8.70;3.20;;;9.90;99.90;;;;;;5005782;28;20191;-65
2022/04/15 03:00:42;;;;;;;6.30;3.00;;;9.90;99.90;;;;;;5006120;28;20775;-65
2022/04/15 03:03:07;;;;;;;5.37;2.80;;;9.90;99.90;;;;;;5006140;28;20191;-65
2022/04/15 03:05:33;;;;;;;4.97;2.27;;;9.90;99.90;;;;;;5006456;28;20242;-64
2022/04/15 03:07:59;;;;;;;10.03;2.73;;;9.90;99.90;;;;;;5005351;28;20746;-65
2022/04/15 03:10:25;;;;;;;5.73;3.00;;;9.80;99.90;;;;;;5009520;28;20214;-64
2022/04/15 03:12:51;;;;;;;8.20;2.90;;;9.80;99.90;;;;;;5006457;28;20574;-64
2022/04/15 03:15:16;;;;;;;4.60;2.43;;;9.80;99.90;;;;;;5006190;28;20523;-64
2022/04/15 03:17:43;;;;;;;3.73;2.37;;;9.70;99.90;;;;;;4988215;28;20625;-63
2022/04/15 03:20:09;;;;;;;7.13;3.57;;;9.70;99.90;;;;;;5005594;28;20223;-65
2022/04/15 03:22:36;;;;;;;4.47;2.53;;;9.70;99.90;;;;;;5000265;28;20418;-64
2022/04/15 03:25:03;;;;;;;5.73;2.77;;;9.70;99.90;;;;;;5018077;28;20892;-64
2022/04/15 03:27:29;;;;;;;12.20;3.33;;;9.60;99.90;;;;;;5005545;28;20511;-65
2022/04/15 03:29:55;;;;;;;12.23;2.50;;;9.60;99.90;;;;;;5005075;28;20430;-65
2022/04/15 03:32:20;;;;;;;4.67;2.57;;;9.50;99.90;;;;;;5006079;28;20183;-65
2022/04/15 03:34:46;;;;;;;7.00;2.70;;;9.50;99.90;;;;;;5006067;28;20294;-65
2022/04/15 03:37:11;;;;;;;4.47;2.60;;;9.50;99.90;;;;;;5007137;28;20607;-64
2022/04/15 03:39:37;;;;;;;7.07;3.73;;;9.40;99.90;;;;;;5010365;28;20709;-64
2022/04/15 03:42:04;;;;;;;11.60;2.40;;;9.40;99.90;;;;;;5005681;28;20576;-65
2022/04/15 03:44:29;;;;;;;4.90;2.97;;;9.30;99.90;;;;;;5005537;28;20206;-64
2022/04/15 03:46:55;;;;;;;6.87;3.10;;;9.30;99.90;;;;;;5013665;28;20453;-65
2022/04/15 03:49:21;;;;;;;5.67;3.23;;;9.30;99.90;;;;;;5005123;28;20190;-64
2022/04/15 03:51:46;;;;;;;6.90;2.90;;;9.30;99.90;;;;;;5005376;28;20693;-65
2022/04/15 03:54:12;;;;;;;5.67;3.60;;;9.30;99.90;;;;;;5005052;28;20222;-65
2022/04/15 03:56:38;;;;;;;11.93;4.50;;;9.30;99.90;;;;;;5005588;28;20220;-66
2022/04/15 03:59:04;;;;;;;14.13;6.30;;;9.30;99.90;;;;;;5004442;28;20282;-64
2022/04/15 04:01:30;;;;;;;5.00;3.43;;;9.30;99.90;;;;;;5005941;28;20267;-65
2022/04/15 04:03:56;;;;;;;14.27;5.30;;;9.20;99.90;;;;;;5005508;28;20441;-65
2022/04/15 04:06:21;;;;;;;5.40;3.93;;;9.30;99.90;;;;;;5005331;28;20473;-64
2022/04/15 04:08:50;;;;;;;7.73;2.83;;;9.30;99.90;;;;;;5002970;28;20437;-65
2022/04/15 04:11:21;;;;;;;8.33;4.20;;;9.30;99.90;;;;;;5005753;28;20198;-65
2022/04/15 04:13:47;;;;;;;6.30;3.60;;;9.30;99.90;;;;;;5000937;28;20517;-65
2022/04/15 04:16:13;;;;;;;7.53;3.30;;;9.20;99.90;;;;;;5018845;28;20444;-65
2022/04/15 04:18:39;;;;;;;6.57;3.67;;;9.20;99.90;;;;;;5004681;28;21205;-65
2022/04/15 04:21:05;;;;;;;6.00;3.23;;;9.20;99.90;;;;;;5007110;28;20247;-64
2022/04/15 04:23:31;;;;;;;7.63;3.30;;;9.10;99.90;;;;;;5009228;28;20967;-65
2022/04/15 04:25:56;;;;;;;5.33;2.50;;;9.00;99.90;;;;;;5009448;28;20218;-64
2022/04/15 04:28:22;;;;;;;6.60;2.87;;;9.00;99.90;;;;;;5008787;28;20198;-62
2022/04/15 04:30:47;;;;;;;5.97;3.10;;;9.00;99.90;;;;;;5009106;28;20187;-64
2022/04/15 04:33:13;;;;;;;5.07;3.30;;;9.00;99.90;;;;;;5009177;28;20252;-65
2022/04/15 04:35:39;;;;;;;6.97;3.50;;;8.90;99.90;;;;;;5011776;28;20246;-64
2022/04/15 04:38:06;;;;;;;6.93;3.33;;;8.90;99.90;;;;;;5009081;28;20850;-62
2022/04/15 04:40:33;;;;;;;5.20;3.30;;;8.90;99.90;;;;;;5008657;28;20199;-64
2022/04/15 04:42:59;;;;;;;8.03;3.27;;;8.90;99.90;;;;;;5006862;28;20430;-65
2022/04/15 04:45:25;;;;;;;6.33;3.63;;;8.90;99.90;;;;;;5010436;28;20496;-64
2022/04/15 04:47:53;;;;;;;5.17;3.17;;;8.80;99.90;;;;;;5009437;28;20503;-64
2022/04/15 04:50:19;;;;;;;12.40;4.87;;;8.80;99.90;;;;;;5008026;28;21138;-65
2022/04/15 04:52:46;;;;;;;7.43;3.53;;;8.70;99.90;;;;;;5008183;28;20426;-67
2022/04/15 04:55:13;;;;;;;5.43;3.40;;;8.70;99.90;;;;;;5009072;28;20207;-66
2022/04/15 04:57:42;;;;;;;4.20;3.00;;;8.70;99.90;;;;;;5009498;28;20430;-66
2022/04/15 05:00:09;;;;;;;5.00;2.83;;;8.70;99.90;;;;;;5007960;28;20524;-66
2022/04/15 05:02:35;;;;;;;10.10;3.23;;;8.70;99.90;;;;;;5008337;28;20429;-67
2022/04/15 05:05:01;;;;;;;9.77;4.27;;;8.70;99.90;;;;;;5012534;28;20477;-67
2022/04/15 05:07:27;;;;;;;6.70;3.43;;;8.70;99.90;;;;;;5014199;28;20489;-67
2022/04/15 05:09:53;;;;;;;6.53;3.67;;;8.80;99.90;;;;;;5006044;28;20698;-67
2022/04/15 05:12:18;;;;;;;10.03;3.60;;;8.70;99.90;;;;;;5008797;28;20199;-66
2022/04/15 05:14:44;;;;;;;8.60;4.07;;;8.80;99.90;;;;;;5008329;28;20222;-67
2022/04/15 05:17:10;;;;;;;8.30;3.57;;;8.80;99.90;;;;;;5008601;28;20686;-67
2022/04/15 05:19:35;;;;;;;7.53;3.50;;;8.80;99.90;;;;;;5007349;28;20194;-67
2022/04/15 05:22:01;;;;;;;5.00;3.03;;;8.80;99.90;;;;;;5008599;28;20218;-66
2022/04/15 05:24:26;;;;;;;4.63;3.00;;;8.90;99.90;;;;;;5007559;28;20198;-67
2022/04/15 05:26:52;;;;;;;7.87;4.10;;;8.90;99.90;;;;;;5014532;28;20186;-67
2022/04/15 05:29:18;;;;;;;7.23;3.50;;;9.00;99.90;;;;;;5022766;28;20197;-67
2022/04/15 05:31:43;;;;;;;6.87;3.67;;;9.00;99.90;;;;;;5007206;28;20229;-67
2022/04/15 05:34:09;;;;;;;13.57;4.87;;;9.10;99.90;;;;;;5007785;28;20611;-66
2022/04/15 05:36:34;;;;;;;9.83;4.73;;;9.10;99.90;;;;;;5011499;28;20202;-67
2022/04/15 05:39:00;;;;;;;12.47;5.50;;;9.20;99.90;;;;;;5006772;28;20223;-67
2022/04/15 05:41:26;;;;;;;14.50;6.90;;;9.20;99.90;;;;;;5007998;28;20191;-66
2022/04/15 05:43:52;;;;;;;9.40;5.27;;;9.30;99.90;;;;;;5014165;28;20191;-67
2022/04/15 05:46:19;;;;;;;8.60;3.73;;;9.40;99.90;;;;;;5011091;28;20241;-67
2022/04/15 05:48:45;;;;;;;6.77;3.57;;;9.50;99.90;;;;;;5008841;28;20183;-67
2022/04/15 05:51:10;;;;;;;8.30;4.40;;;9.60;99.90;;;;;;5007203;28;20477;-67
2022/04/15 05:53:36;;;;;;;7.83;3.60;;;9.60;99.90;;;;;;5011599;28;20273;-67
2022/04/15 05:56:02;;;;;;;6.17;3.37;;;9.70;99.90;;;;;;5011816;28;20218;-67
2022/04/15 05:58:28;;;;;;;6.80;3.87;;;9.80;99.90;;;;;;5006627;28;20245;-67
2022/04/15 06:00:54;;;;;;;8.60;3.70;;;9.90;99.90;;;;;;5007475;28;20217;-67
2022/04/15 06:03:20;;;;;;;9.43;3.70;;;9.90;99.90;;;;;;5007518;28;20448;-67
2022/04/15 06:05:50;;;;;;;8.97;3.80;;;10.00;99.90;;;;;;5007049;28;20997;-67
2022/04/15 06:08:16;;;;;;;8.10;3.53;;;10.10;99.90;;;;;;5006000;28;20203;-67
2022/04/15 06:10:42;;;;;;;8.90;4.27;;;10.30;99.90;;;;;;5006491;28;20438;-66
2022/04/15 06:13:14;;;;;;;8.73;4.60;;;10.40;99.90;;;;;;5006995;28;20448;-66
2022/04/15 06:15:41;;;;;;;6.87;3.70;;;10.60;99.90;;;;;;5007268;28;20807;-67
2022/04/15 06:18:08;;;;;;;9.97;4.67;;;10.70;99.90;;;;;;5006924;28;20438;-67
2022/04/15 06:20:34;;;;;;;7.27;3.80;;;10.90;99.90;;;;;;5013370;28;20474;-67
2022/04/15 06:23:00;;;;;;;9.13;4.00;;;11.00;99.90;;;;;;5006168;28;20434;-66
2022/04/15 06:25:26;;;;;;;9.93;4.10;;;11.20;99.90;;;;;;5007400;28;20482;-66
2022/04/15 06:27:54;;;;;;;8.97;4.50;;;11.30;99.90;;;;;;5007340;28;20190;-66
2022/04/15 06:30:21;;;;;;;7.63;3.93;;;11.50;99.90;;;;;;5006843;28;21286;-67
2022/04/15 06:32:47;;;;;;;9.43;4.80;;;11.60;99.90;;;;;;5006950;28;20430;-67
2022/04/15 06:35:13;;;;;;;6.67;4.07;;;11.80;99.90;;;;;;5010865;28;20437;-67
2022/04/15 06:37:39;;;;;;;7.03;4.07;;;11.90;99.90;;;;;;5006586;28;20471;-65
2022/04/15 06:40:06;;;;;;;9.30;4.80;;;12.10;99.90;;;;;;5006922;28;21197;-65
2022/04/15 06:42:31;;;;;;;8.70;4.10;;;12.20;99.90;;;;;;5007989;28;20433;-67
2022/04/15 06:44:58;;;;;;;9.27;4.27;;;12.40;99.90;;;;;;5014745;28;20469;-65
2022/04/15 06:47:24;;;;;;;8.80;3.93;;;12.50;99.90;;;;;;5010519;28;20277;-65
2022/04/15 06:49:50;;;;;;;17.33;5.93;;;12.60;99.90;;;;;;5006261;28;20561;-65
2022/04/15 06:52:17;;;;;;;11.50;5.83;;;12.80;99.90;;;;;;5006659;28;20191;-65
2022/04/15 06:54:43;;;;;;;10.30;5.37;;;12.90;99.90;;;;;;5006472;28;20215;-66
2022/04/15 06:57:09;;;;;;;6.60;4.63;;;12.90;99.90;;;;;;5007103;28;20429;-67
2022/04/15 06:59:35;;;;;;;10.03;4.87;;;13.10;99.90;;;;;;5012899;28;20458;-67
2022/04/15 07:02:01;;;;;;;8.20;4.90;;;13.20;99.90;;;;;;5006560;28;20194;-68
2022/04/15 07:04:28;;;;;;;8.93;4.60;;;13.50;99.90;;;;;;5006607;28;20430;-67
2022/04/15 07:06:54;;;;;;;10.33;5.40;;;13.60;99.90;;;;;;5006444;28;20438;-67
2022/04/15 07:09:20;;;;;;;11.93;5.70;;;13.70;99.90;;;;;;5005291;28;20430;-66
2022/04/15 07:11:46;;;;;;;15.60;6.23;;;13.80;99.90;;;;;;5007145;28;20434;-67
2022/04/15 07:14:11;;;;;;;10.30;5.23;;;14.10;99.90;;;;;;5007834;28;20190;-67
2022/04/15 07:16:37;;;;;;;15.03;6.73;;;14.50;99.90;;;;;;5007747;28;20988;-66
2022/04/15 07:19:07;;;;;;;14.63;5.83;;;14.80;99.90;;;;;;5006746;28;20667;-67
2022/04/15 07:21:33;;;;;;;13.00;5.73;;;15.20;99.90;;;;;;5008232;28;20191;-67
2022/04/15 07:23:59;;;;;;;12.80;6.10;;;15.30;99.90;;;;;;5008369;28;20422;-68
2022/04/15 07:26:25;;;;;;;18.90;7.50;;;15.70;99.90;;;;;;5011517;28;20480;-65
2022/04/15 07:28:50;;;;;;;11.93;5.20;;;16.10;99.00;;;;;;5011618;28;20663;-65
2022/04/15 07:31:16;;;;;;;14.53;5.93;;;16.80;98.30;;;;;;5012731;28;20186;-65
2022/04/15 07:33:42;;;;;;;15.60;6.60;;;17.30;97.60;;;;;;5014251;28;20898;-65
2022/04/15 07:36:31;;;;;;;13.10;7.27;;;17.80;95.90;;;;;;5011886;28;20226;-65
2022/04/15 07:38:56;;;;;;;12.87;7.10;;;17.90;94.20;;;;;;5010668;28;20198;-67
2022/04/15 07:41:21;;;;;;;10.87;6.10;;;18.40;93.80;;;;;;5011540;28;20433;-66
2022/04/15 07:43:48;;;;;;;10.47;6.57;;;19.00;92.10;;;;;;5009087;28;20217;-65
2022/04/15 07:46:14;;;;;;;13.40;7.37;;;19.70;91.40;;;;;;5015741;28;20217;-67
2022/04/15 07:48:40;;;;;;;14.33;6.47;;;19.50;90.20;;;;;;5007505;28;20504;-66
2022/04/15 07:51:06;;;;;;;13.10;6.93;;;19.50;90.10;;;;;;5005664;28;20961;-66
2022/04/15 07:53:31;;;;;;;14.43;7.13;;;19.50;90.10;;;;;;5004735;28;20179;-65
2022/04/15 07:55:57;;;;;;;13.33;6.70;;;20.20;89.00;;;;;;5011165;28;20223;-67
2022/04/15 07:58:23;;;;;;;13.60;7.30;;;20.30;86.90;;;;;;5004611;28;20251;-65
2022/04/15 08:00:49;;;;;;;13.73;7.47;;;20.50;86.80;;;;;;5005603;28;20190;-66
2022/04/15 08:03:17;;;;;;;14.00;6.27;;;20.40;85.40;;;;;;5005701;28;20194;-66
2022/04/15 08:05:43;;;;;;;12.30;7.47;;;20.20;86.20;;;;;;5005610;28;21000;-66
2022/04/15 08:08:09;;;;;;;12.60;6.50;;;19.70;87.10;;;;;;5004649;28;20490;-64
2022/04/15 08:10:34;;;;;;;10.27;6.50;;;19.10;86.20;;;;;;5003044;28;20823;-64
2022/04/15 08:13:02;;;;;;;14.63;8.10;;;18.80;86.90;;;;;;5004488;28;20945;-67
2022/04/15 08:15:27;;;;;;;20.47;7.93;;;18.60;86.80;;;;;;5004169;28;20233;-67
2022/04/15 08:17:53;;;;;;;16.03;7.77;;;18.30;87.30;;;;;;5004934;28;20545;-67
2022/04/15 08:20:19;;;;;;;12.77;6.30;;;18.30;86.50;;;;;;5001740;28;20925;-68
2022/04/15 08:22:44;;;;;;;15.67;8.00;;;18.30;86.70;;;;;;5011123;28;20191;-67
2022/04/15 08:25:10;;;;;;;13.50;7.40;;;18.40;85.60;;;;;;5009732;28;20231;-67
2022/04/15 08:27:36;;;;;;;13.20;6.10;;;18.30;86.10;;;;;;5005250;28;20206;-67
2022/04/15 08:30:02;;;;;;;10.03;5.87;;;18.60;83.70;;;;;;5004023;28;20236;-68
2022/04/15 08:32:33;;;;;;;12.40;6.10;;;18.40;84.10;;;;;;5009876;28;20266;-67
2022/04/15 08:35:03;;;;;;;12.80;6.50;;;18.40;85.30;;;;;;5011684;28;20450;-69
2022/04/15 08:37:28;;;;;;;11.67;5.60;;;18.60;86.00;;;;;;5012183;28;20472;-65
2022/04/15 08:39:54;;;;;;;14.53;7.83;;;18.60;85.60;;;;;;5009316;28;20533;-68
2022/04/15 08:42:21;;;;;;;13.53;6.60;;;18.60;84.80;;;;;;5014886;28;20191;-68
2022/04/15 08:44:53;;;;;;;17.73;8.23;;;18.60;85.80;;;;;;5004618;28;20325;-67
2022/04/15 08:47:20;;;;;;;13.63;7.70;;;18.40;86.20;;;;;;5007675;28;20496;-67
2022/04/15 08:49:48;;;;;;;13.50;7.27;;;18.50;84.70;;;;;;5004124;28;20422;-68
2022/04/15 08:52:16;;;;;;;14.50;8.10;;;18.50;85.30;;;;;;5004863;28;20446;-67
2022/04/15 08:54:43;;;;;;;15.50;7.40;;;18.60;84.30;;;;;;5004513;28;20492;-68
2022/04/15 08:57:09;;;;;;;17.20;7.60;;;18.60;87.40;;;;;;5005351;28;20450;-66
2022/04/15 08:59:35;;;;;;;12.53;6.50;;;18.70;84.80;;;;;;5007437;28;20430;-67
2022/04/15 09:02:01;;;;;;;12.17;5.83;;;18.90;83.10;;;;;;5005356;28;20195;-67
2022/04/15 09:04:26;;;;;;;16.63;7.60;;;19.00;83.30;;;;;;5000491;28;20195;-66
2022/04/15 09:06:56;;;;;;;31.17;8.47;;;19.30;82.40;;;;;;4989402;28;20305;-66
2022/04/15 09:09:29;;;;;;;15.33;7.47;;;19.60;80.90;;;;;;5005971;28;20183;-67
2022/04/15 09:11:59;;;;;;;13.87;7.00;;;19.70;81.00;;;;;;5017610;28;20424;-66
2022/04/15 09:14:26;;;;;;;12.20;6.17;;;20.00;80.60;;;;;;5020641;28;21070;-68
2022/04/15 09:16:52;;;;;;;13.33;6.93;;;19.80;79.70;;;;;;5008273;28;20849;-67
2022/04/15 09:19:18;;;;;;;13.10;6.50;;;19.60;82.90;;;;;;5006434;28;20457;-67
2022/04/15 09:21:52;;;;;;;11.33;6.73;;;19.70;83.40;;;;;;5004113;28;20998;-67
2022/04/15 09:24:32;;;;;;;12.03;5.83;;;20.10;81.10;;;;;;5015956;28;20467;-67
2022/04/15 09:27:05;;;;;;;15.33;7.70;;;20.30;80.00;;;;;;5011874;28;20425;-67
2022/04/15 09:29:35;;;;;;;12.47;6.23;;;20.50;78.60;;;;;;5010713;28;20547;-67
2022/04/15 09:32:17;;;;;;;13.80;6.20;;;20.00;78.70;;;;;;5008031;28;20420;-67
2022/04/15 09:34:53;;;;;;;12.27;6.03;;;20.30;78.50;;;;;;5006554;28;20461;-65
2022/04/15 09:37:20;;;;;;;15.80;8.13;;;20.00;79.80;;;;;;5002127;28;20440;-66
2022/04/15 09:40:14;;;;;;;11.60;5.80;;;20.00;78.90;;;;;;5005747;28;20588;-68
2022/04/15 09:42:47;;;;;;;13.10;6.43;;;19.80;80.50;;;;;;5007976;28;20429;-68
2022/04/15 09:45:17;;;;;;;12.33;6.27;;;19.80;81.00;;;;;;5015218;28;20513;-67
2022/04/15 09:47:43;;;;;;;10.73;7.00;;;19.50;82.90;;;;;;5013902;28;21339;-67
2022/04/15 09:50:26;;;;;;;14.03;7.60;;;19.10;83.20;;;;;;5008720;28;20988;-66
2022/04/15 09:52:53;;;;;;;9.93;5.63;;;18.70;83.50;;;;;;5003043;28;20423;-66
2022/04/15 09:55:21;;;;;;;10.73;4.73;;;18.80;81.90;;;;;;5001432;28;20450;-66
2022/04/15 09:57:50;;;;;;;9.63;5.90;;;18.80;83.00;;;;;;5003887;28;20580;-66
2022/04/15 10:00:18;;;;;;;13.07;5.50;;;18.80;80.60;;;;;;5000860;28;20425;-67
2022/04/15 10:02:45;;;;;;;10.50;5.50;;;18.80;80.60;;;;;;5011313;28;20457;-66
2022/04/15 10:05:12;;;;;;;14.20;7.00;;;19.10;80.90;;;;;;5005195;28;20530;-66
2022/04/15 10:07:43;;;;;;;9.77;5.17;;;19.00;80.40;;;;;;5008250;28;20496;-66
2022/04/15 10:10:10;;;;;;;10.93;6.43;;;18.70;79.30;;;;;;4995139;28;21032;-66
2022/04/15 10:12:39;;;;;;;13.23;6.20;;;18.50;81.10;;;;;;5007380;28;20529;-65
2022/04/15 10:15:12;;;;;;;12.60;5.20;;;18.60;82.10;;;;;;5007437;28;20536;-66
2022/04/15 10:17:39;;;;;;;4.80;2.57;;;18.80;76.50;;;;;;5012955;28;20449;-66
2022/04/15 10:20:08;;;;;;;12.13;2.80;;;18.80;76.00;;;;;;5020077;28;20457;-67
2022/04/15 10:22:39;;;;;;;7.53;4.83;;;18.80;76.30;;;;;;5012451;28;20501;-65
2022/04/15 10:25:07;;;;;;;16.07;4.87;;;19.10;75.50;;;;;;5009133;28;20472;-66
2022/04/15 10:27:33;;;;;;;7.37;4.33;;;19.20;76.20;;;;;;5009479;28;20449;-66
2022/04/15 10:30:20;;;;;;;8.60;5.20;;;19.20;77.20;;;;;;5019981;28;20421;-66
2022/04/15 10:32:54;;;;;;;17.03;6.00;;;19.30;77.40;;;;;;5014046;28;20455;-67
2022/04/15 10:35:34;;;;;;;11.80;4.23;;;19.00;78.60;;;;;;5019173;28;20437;-69
2022/04/15 10:38:09;;;;;;;8.83;3.53;;;19.10;76.30;;;;;;5013468;28;21073;-69
2022/04/15 10:40:36;;;;;;;10.70;4.60;;;19.10;76.10;;;;;;5006595;28;20434;-68
2022/04/15 10:43:22;;;;;;;8.57;3.30;;;18.90;77.30;;;;;;5005872;28;20437;-65
2022/04/15 10:45:51;;;;;;;8.57;3.80;;;18.60;75.20;;;;;;5003729;28;20477;-67
2022/04/15 10:48:32;;;;;;;7.73;4.20;;;18.10;76.40;;;;;;5015140;28;20426;-66
2022/04/15 10:51:12;;;;;;;8.40;4.20;;;18.00;78.30;;;;;;5012462;28;20433;-67
2022/04/15 10:53:38;;;;;;;7.27;4.00;;;18.30;77.30;;;;;;5014860;28;20453;-66
2022/04/15 10:56:08;;;;;;;10.23;4.60;;;18.60;77.50;;;;;;5007047;28;20461;-67
2022/04/15 11:01:33;;;;;;;10.53;3.47;;;18.80;77.60;;;;;;5003201;28;20452;-67
2022/04/15 11:04:05;;;;;;;6.13;3.23;;;18.70;77.70;;;;;;5008897;28;20898;-67
2022/04/15 11:06:31;;;;;;;6.23;2.97;;;18.80;80.00;;;;;;5008274;28;20230;-66
2022/04/15 11:08:58;;;;;;;7.03;3.40;;;18.80;77.00;;;;;;5008059;28;20501;-67
2022/04/15 11:11:35;;;;;;;8.13;4.17;;;18.60;78.40;;;;;;5009576;28;20183;-67
2022/04/15 11:14:04;;;;;;;16.67;3.80;;;18.50;78.00;;;;;;5007516;28;20422;-67
2022/04/15 11:16:53;;;;;;;4.20;1.63;;;18.40;77.90;;;;;;5006653;28;20935;-67
2022/04/15 11:19:26;;;;;;;6.57;2.73;;;18.30;76.30;;;;;;5002323;28;20434;-65
2022/04/15 11:21:53;;;;;;;5.83;1.93;;;18.20;75.60;;;;;;5001341;28;20938;-66
2022/04/15 11:24:33;;;;;;;4.07;2.20;;;18.30;74.30;;;;;;5005592;28;20465;-67
2022/04/15 11:27:03;;;;;;;5.30;2.50;;;18.20;73.90;;;;;;5006427;28;20444;-67
2022/04/15 11:29:31;;;;;;;7.27;2.87;;;18.10;75.10;;;;;;5004092;28;20541;-65
2022/04/15 11:31:59;;;;;;;7.97;2.90;;;18.00;76.80;;;;;;5010342;28;20433;-67
2022/04/15 11:34:25;;;;;;;6.70;2.90;;;18.40;75.60;;;;;;5010215;28;20434;-67
2022/04/15 11:36:56;;;;;;;10.23;3.07;;;18.50;74.20;;;;;;5007705;28;20444;-66
2022/04/15 11:39:23;;;;;;;11.00;3.43;;;18.50;72.50;;;;;;5004457;28;20504;-66
2022/04/15 11:41:52;;;;;;;6.60;3.20;;;18.40;77.40;;;;;;5012002;28;20433;-66
2022/04/15 11:44:19;;;;;;;4.90;2.83;;;18.70;76.00;;;;;;5012767;28;20434;-66
2022/04/15 11:46:50;;;;;;;7.60;3.30;;;18.70;75.60;;;;;;5005032;28;20485;-66
2022/04/15 11:49:22;;;;;;;5.60;2.30;;;18.80;73.30;;;;;;5007213;28;20432;-66
2022/04/15 11:51:55;;;;;;;6.77;1.97;;;19.00;75.00;;;;;;5009159;28;20422;-65
2022/04/15 11:54:34;;;;;;;7.97;3.40;;;19.00;74.10;;;;;;5009304;28;20425;-65
2022/04/15 11:57:05;;;;;;;6.57;3.33;;;19.30;72.40;;;;;;4986917;28;20433;-66
2022/04/15 11:59:45;;;;;;;8.23;3.40;;;19.30;71.90;;;;;;5003204;28;20521;-66
2022/04/15 12:02:18;;;;;;;8.60;4.00;;;19.40;73.10;;;;;;5003416;28;20441;-65
2022/04/15 12:04:58;;;;;;;5.47;3.40;;;19.30;76.30;;;;;;5006029;28;21100;-65
2022/04/15 12:07:24;;;;;;;9.70;3.97;;;19.20;72.60;;;;;;5005416;28;20429;-64
2022/04/15 12:09:51;;;;;;;6.03;2.20;;;18.90;72.10;;;;;;5004145;28;20524;-66
2022/04/15 12:12:19;;;;;;;7.13;3.23;;;18.80;73.60;;;;;;5003793;28;20489;-65
2022/04/15 12:14:47;;;;;;;3.67;2.13;;;18.70;72.90;;;;;;5005221;28;20804;-64
2022/04/15 12:17:16;;;;;;;5.17;2.90;;;18.70;75.40;;;;;;5007377;28;20944;-65
2022/04/15 12:19:42;;;;;;;6.83;3.00;;;18.80;73.90;;;;;;5011830;28;20421;-66
2022/04/15 12:22:08;;;;;;;4.23;2.70;;;18.80;72.60;;;;;;5005222;28;20977;-66
2022/04/15 12:24:34;;;;;;;6.03;2.30;;;18.80;71.10;;;;;;5004926;28;20428;-65
2022/04/15 12:27:03;;;;;;;3.47;2.57;;;19.00;72.70;;;;;;5005591;28;20187;-67
2022/04/15 12:30:03;;;;;;;4.30;2.80;;;19.00;70.00;;;;;;4987271;28;20611;-68
2022/04/15 12:32:34;;;;;;;6.00;3.03;;;19.10;69.20;;;;;;5001266;28;20426;-68
2022/04/15 12:34:59;;;;;;;4.67;2.37;;;19.20;70.40;;;;;;5014427;28;20495;-66
2022/04/15 12:37:36;;;;;;;9.17;3.20;;;19.10;70.60;;;;;;5004956;28;20426;-68
2022/04/15 12:40:17;;;;;;;10.23;3.47;;;18.90;70.70;;;;;;5001971;28;20248;-66
2022/04/15 12:42:44;;;;;;;3.13;2.40;;;18.90;70.80;;;;;;5006756;28;20765;-65
2022/04/15 12:45:10;;;;;;;10.50;3.57;;;19.10;71.00;;;;;;5006951;28;20491;-65
2022/04/15 12:47:37;;;;;;;6.13;2.70;;;19.10;69.50;;;;;;5007783;28;21705;-66
2022/04/15 12:50:25;;;;;;;6.97;3.47;;;19.10;70.50;;;;;;5006579;28;20442;-66
2022/04/15 12:52:55;;;;;;;8.93;4.10;;;19.30;72.30;;;;;;5005285;28;20409;-67
2022/04/15 12:55:34;;;;;;;10.13;3.97;;;19.60;72.70;;;;;;5007999;28;20449;-66